Time;durP1;ratioP1;P1;durP2;ratioP2;P2;SDS_P1;SDS_P2;PMS_P1;PMS_P2;Temp;Humidity;BMP_temperature;BMP_pressure;BME280_temperature;BME280_humidity;BME280_pressure;Samples;Min_cycle;Max_cycle;Signal;HPM_P1;HPM_P2
2023/06/09 00:00:18;;;;;;;4.95;4.43;;;;;;;23.18;62.80;96295.06;5042988;28;20018;-31
2023/06/09 00:02:44;;;;;;;6.38;5.00;;;;;;;23.10;62.99;96294.13;5043196;28;20041;-29
2023/06/09 00:05:11;;;;;;;6.22;4.80;;;;;;;22.92;63.42;96298.25;5035749;28;20049;-29
2023/06/09 00:07:37;;;;;;;7.97;5.70;;;;;;;22.97;63.60;96299.50;5035630;28;20053;-28
2023/06/09 00:10:03;;;;;;;7.32;5.65;;;;;;;23.16;62.82;96281.00;5035504;28;20384;-29
2023/06/09 00:12:29;;;;;;;7.40;5.60;;;;;;;23.02;63.09;96284.84;5049959;28;20022;-27
2023/06/09 00:14:55;;;;;;;6.22;5.32;;;;;;;23.01;63.23;96279.84;5042067;28;20074;-29
2023/06/09 00:17:24;;;;;;;6.50;5.35;;;;;;;23.06;62.71;96282.56;5035736;28;20049;-28
2023/06/09 00:19:52;;;;;;;5.50;4.53;;;;;;;23.13;62.56;96281.25;5035435;28;20393;-29
2023/06/09 00:22:19;;;;;;;6.85;4.55;;;;;;;22.84;63.40;96279.94;5035535;28;20590;-29
2023/06/09 00:24:46;;;;;;;5.15;4.18;;;;;;;23.12;62.36;96280.50;5039136;28;20017;-29
2023/06/09 00:27:12;;;;;;;6.40;4.53;;;;;;;23.09;62.13;96280.81;5037960;28;20029;-28
2023/06/09 00:29:37;;;;;;;6.97;4.80;;;;;;;23.00;62.18;96268.03;5050020;28;20028;-29
2023/06/09 00:32:04;;;;;;;6.45;4.95;;;;;;;23.06;61.97;96276.28;5035128;28;20036;-29
2023/06/09 00:34:30;;;;;;;7.47;5.47;;;;;;;23.02;62.43;96270.28;5035308;28;20032;-28
2023/06/09 00:36:55;;;;;;;8.80;6.60;;;;;;;23.00;62.10;96265.25;5035061;28;20014;-28
2023/06/09 00:39:22;;;;;;;10.98;6.55;;;;;;;23.11;61.63;96265.22;5041585;28;20017;-29
2023/06/09 00:41:48;;;;;;;9.43;6.30;;;;;;;22.91;62.53;96251.75;5044102;28;20112;-28
2023/06/09 00:44:14;;;;;;;9.68;5.72;;;;;;;23.06;62.31;96251.41;5035077;28;20104;-29
2023/06/09 00:46:41;;;;;;;9.85;6.68;;;;;;;22.88;62.45;96247.97;5034780;28;20029;-28
2023/06/09 00:49:06;;;;;;;10.60;6.85;;;;;;;23.08;62.07;96252.41;5040767;28;20037;-28
2023/06/09 00:51:35;;;;;;;13.27;8.02;;;;;;;22.99;62.39;96251.97;5041326;28;20020;-29
2023/06/09 00:54:01;;;;;;;9.75;6.57;;;;;;;22.96;62.72;96255.75;5043161;28;20095;-28
2023/06/09 00:56:29;;;;;;;11.10;7.47;;;;;;;23.03;62.51;96250.41;5039458;28;20042;-28
2023/06/09 00:58:54;;;;;;;10.48;7.50;;;;;;;22.99;62.28;96252.72;5034633;28;20021;-28
2023/06/09 01:01:20;;;;;;;9.45;7.30;;;;;;;22.99;62.41;96246.44;5034521;28;20052;-28
2023/06/09 01:03:46;;;;;;;9.50;6.22;;;;;;;22.88;62.58;96250.75;5034610;28;20014;-30
2023/06/09 01:06:38;;;;;;;9.45;6.57;;;;;;;23.03;62.14;96244.88;5034703;28;20104;-28
2023/06/09 01:09:09;;;;;;;7.80;5.68;;;;;;;23.01;61.65;96250.16;5041737;28;20108;-28
2023/06/09 01:11:55;;;;;;;8.55;6.03;;;;;;;23.09;61.43;96247.63;5034481;28;20113;-28
2023/06/09 01:14:26;;;;;;;8.48;5.80;;;;;;;22.98;61.93;96242.91;5034646;28;20033;-28
2023/06/09 01:17:07;;;;;;;8.38;6.55;;;;;;;23.06;61.58;96248.63;5034342;28;20033;-28
2023/06/09 01:19:39;;;;;;;7.45;6.20;;;;;;;23.08;61.71;96246.09;5041631;28;20377;-29
2023/06/09 01:22:28;;;;;;;7.85;6.35;;;;;;;23.04;61.73;96249.16;5041573;28;20100;-28
2023/06/09 01:25:17;;;;;;;6.80;5.60;;;;;;;23.00;61.79;96259.72;5036072;28;20056;-28
2023/06/09 01:27:45;;;;;;;8.43;6.28;;;;;;;22.78;62.05;96249.56;5029283;28;20175;-28
2023/06/09 01:30:13;;;;;;;8.63;5.78;;;;;;;22.84;62.22;96261.34;5041316;28;20021;-28
2023/06/09 01:32:40;;;;;;;8.98;6.00;;;;;;;22.77;61.73;96250.06;5034270;28;20047;-28
2023/06/09 01:35:07;;;;;;;8.45;6.53;;;;;;;22.81;61.69;96250.56;5033948;28;20151;-29
2023/06/09 01:37:33;;;;;;;7.40;6.25;;;;;;;22.66;62.28;96252.88;5041409;28;20385;-28
2023/06/09 01:39:59;;;;;;;9.02;6.90;;;;;;;22.83;62.02;96242.50;5033592;28;20039;-28
2023/06/09 01:42:25;;;;;;;9.15;6.55;;;;;;;22.83;61.84;96248.03;5034099;28;20132;-28
2023/06/09 01:44:50;;;;;;;8.13;6.22;;;;;;;22.92;61.86;96245.69;5034122;28;20021;-29
2023/06/09 01:47:18;;;;;;;6.72;5.63;;;;;;;22.76;62.02;96243.78;5038929;28;20464;-28
2023/06/09 01:50:01;;;;;;;6.22;5.00;;;;;;;22.91;61.50;96241.44;5036207;28;20101;-28
2023/06/09 01:52:33;;;;;;;6.20;5.53;;;;;;;22.83;62.03;96243.25;5043174;28;20074;-29
2023/06/09 01:55:03;;;;;;;5.70;4.40;;;;;;;22.79;61.58;96242.03;5033186;28;20511;-28
2023/06/09 01:57:39;;;;;;;6.40;3.72;;;;;;;22.89;61.29;96237.69;5034135;28;20514;-28
2023/06/09 02:00:07;;;;;;;3.92;3.42;;;;;;;22.58;61.87;96234.06;5035156;28;20049;-30
2023/06/09 02:02:34;;;;;;;3.35;3.03;;;;;;;22.68;61.08;96242.81;5038837;28;20108;-28
2023/06/09 02:05:03;;;;;;;3.00;2.70;;;;;;;22.76;61.12;96241.03;5041089;28;20075;-28
2023/06/09 02:07:30;;;;;;;3.40;3.10;;;;;;;22.81;60.79;96236.72;5032529;28;20033;-28
2023/06/09 02:09:56;;;;;;;4.90;3.47;;;;;;;22.78;60.69;96235.72;5033336;28;20045;-28
2023/06/09 02:12:21;;;;;;;6.30;3.90;;;;;;;22.80;60.76;96243.53;5041382;28;20154;-28
2023/06/09 02:14:46;;;;;;;4.07;3.63;;;;;;;22.85;60.47;96242.75;5033608;28;20017;-30
2023/06/09 02:17:12;;;;;;;5.10;3.97;;;;;;;22.99;60.16;96244.41;5041158;28;20024;-28
2023/06/09 02:19:38;;;;;;;8.60;3.70;;;;;;;23.00;60.05;96243.13;5033611;28;20024;-29
2023/06/09 02:22:08;;;;;;;5.55;3.80;;;;;;;22.83;60.76;96234.22;5032193;28;20021;-28
2023/06/09 02:24:34;;;;;;;5.82;4.40;;;;;;;22.78;60.81;96238.50;5034311;28;20152;-28
2023/06/09 02:27:01;;;;;;;7.18;4.25;;;;;;;22.89;60.28;96238.44;5038117;28;20036;-29
2023/06/09 02:29:27;;;;;;;6.13;4.20;;;;;;;22.88;60.32;96231.41;5041601;28;20558;-28
2023/06/09 02:31:59;;;;;;;5.15;3.85;;;;;;;22.91;59.81;96238.66;5038284;28;20057;-28
2023/06/09 02:34:25;;;;;;;5.85;4.47;;;;;;;22.73;60.69;96239.28;5040000;28;20151;-29
2023/06/09 02:36:52;;;;;;;4.28;3.88;;;;;;;22.71;60.39;96233.50;5033502;28;20478;-28
2023/06/09 02:39:19;;;;;;;4.82;4.30;;;;;;;22.81;60.52;96231.19;5028280;28;20017;-28
2023/06/09 02:41:45;;;;;;;6.03;4.47;;;;;;;22.63;61.11;96245.59;5033461;28;20025;-29
2023/06/09 02:44:10;;;;;;;5.00;4.50;;;;;;;22.68;60.86;96248.34;5040556;28;20163;-28
2023/06/09 02:46:36;;;;;;;5.55;4.35;;;;;;;22.78;60.50;96251.56;5040520;28;20029;-28
2023/06/09 02:49:02;;;;;;;6.45;4.47;;;;;;;22.85;60.60;96254.56;5033442;28;20096;-28
2023/06/09 02:51:27;;;;;;;5.15;4.35;;;;;;;22.66;60.97;96255.63;5033198;28;20087;-29
2023/06/09 02:53:52;;;;;;;5.50;4.28;;;;;;;22.89;60.80;96252.25;5040085;28;20106;-28
2023/06/09 02:56:18;;;;;;;6.53;4.32;;;;;;;22.85;60.91;96256.56;5036832;28;20053;-28
2023/06/09 02:58:43;;;;;;;6.72;4.82;;;;;;;22.82;61.03;96252.06;5034956;28;20469;-28
2023/06/09 03:01:11;;;;;;;7.53;4.95;;;;;;;22.91;60.98;96251.75;5040586;28;20021;-29
2023/06/09 03:03:38;;;;;;;7.57;5.07;;;;;;;22.89;60.98;96251.50;5032784;28;20440;-30
2023/06/09 03:06:07;;;;;;;8.18;5.38;;;;;;;22.82;61.12;96249.28;5032065;28;20032;-28
2023/06/09 03:08:33;;;;;;;8.50;5.47;;;;;;;22.91;61.10;96246.22;5032763;28;20017;-29
2023/06/09 03:10:58;;;;;;;10.30;6.07;;;;;;;22.87;61.43;96251.28;5040104;28;20100;-29
2023/06/09 03:13:24;;;;;;;7.82;5.53;;;;;;;22.97;61.21;96244.19;5044300;28;20087;-29
2023/06/09 03:15:50;;;;;;;10.50;5.28;;;;;;;22.95;61.15;96243.94;5036850;28;20388;-28
2023/06/09 03:18:16;;;;;;;6.78;5.28;;;;;;;23.07;60.86;96234.28;5036958;28;20028;-28
2023/06/09 03:20:43;;;;;;;7.80;5.55;;;;;;;22.92;61.44;96236.66;5036589;28;20419;-29
2023/06/09 03:23:08;;;;;;;7.25;5.60;;;;;;;22.93;61.03;96229.88;5043514;28;20420;-28
2023/06/09 03:25:35;;;;;;;9.05;5.85;;;;;;;22.91;61.11;96237.91;5038907;28;20045;-28
2023/06/09 03:28:01;;;;;;;9.38;5.82;;;;;;;22.99;61.18;96235.38;5040990;28;20017;-28
2023/06/09 03:30:26;;;;;;;9.55;5.30;;;;;;;23.01;60.71;96238.34;5043602;28;20032;-28
2023/06/09 03:32:52;;;;;;;8.77;6.15;;;;;;;22.90;61.19;96239.19;5036268;28;20425;-30
2023/06/09 03:35:17;;;;;;;8.23;5.93;;;;;;;22.92;60.84;96244.94;5042924;28;20035;-28
2023/06/09 03:37:43;;;;;;;10.13;6.50;;;;;;;22.92;60.88;96240.16;5043296;28;20047;-28
2023/06/09 03:40:09;;;;;;;8.43;5.72;;;;;;;22.92;60.64;96242.19;5043157;28;20013;-28
2023/06/09 03:42:35;;;;;;;9.85;6.20;;;;;;;22.80;60.91;96243.53;5036288;28;20052;-28
2023/06/09 03:45:00;;;;;;;8.80;6.03;;;;;;;22.72;61.31;96243.28;5035974;28;20465;-28
2023/06/09 03:47:26;;;;;;;7.30;6.13;;;;;;;22.75;60.88;96247.06;5036071;28;20032;-30
2023/06/09 03:49:52;;;;;;;8.70;6.00;;;;;;;22.99;60.49;96255.47;5043342;28;20052;-28
2023/06/09 03:52:17;;;;;;;8.20;6.07;;;;;;;22.84;60.70;96258.59;5039081;28;20055;-28
2023/06/09 03:54:43;;;;;;;10.05;5.95;;;;;;;22.89;60.80;96254.28;5038162;28;20033;-28
2023/06/09 03:57:08;;;;;;;9.20;6.18;;;;;;;22.88;61.07;96261.06;5036367;28;20044;-28
2023/06/09 03:59:34;;;;;;;8.02;5.75;;;;;;;22.77;61.46;96250.06;5035883;28;20021;-28
2023/06/09 04:01:59;;;;;;;9.50;6.68;;;;;;;22.74;61.58;96260.13;5036074;28;20029;-28
2023/06/09 04:04:25;;;;;;;10.05;6.70;;;;;;;22.66;61.92;96277.75;5036001;28;20040;-28
2023/06/09 04:06:50;;;;;;;11.70;6.22;;;;;;;22.66;61.85;96266.69;5042926;28;20492;-28
2023/06/09 04:09:16;;;;;;;10.63;6.50;;;;;;;22.71;61.71;96282.50;5035680;28;20029;-28
2023/06/09 04:11:42;;;;;;;9.73;6.75;;;;;;;22.64;62.07;96286.53;5042847;28;20021;-28
2023/06/09 04:14:08;;;;;;;9.90;6.32;;;;;;;22.74;61.87;96295.31;5035897;28;20045;-30
2023/06/09 04:16:34;;;;;;;9.40;6.20;;;;;;;22.75;61.69;96294.06;5035606;28;20038;-28
2023/06/09 04:18:59;;;;;;;9.68;6.47;;;;;;;22.56;62.46;96305.69;5035463;28;20025;-28
2023/06/09 04:21:24;;;;;;;9.02;6.47;;;;;;;22.65;61.98;96310.16;5035372;28;20025;-28
2023/06/09 04:23:50;;;;;;;8.63;6.75;;;;;;;22.57;62.39;96314.72;5035274;28;20083;-32
2023/06/09 04:26:16;;;;;;;9.75;6.50;;;;;;;22.56;62.36;96310.47;5035122;28;20021;-28
2023/06/09 04:28:42;;;;;;;9.25;5.97;;;;;;;22.58;62.15;96319.00;5035100;28;20017;-28
2023/06/09 04:31:08;;;;;;;12.80;6.78;;;;;;;22.60;62.32;96312.97;5035088;28;20034;-28
2023/06/09 04:33:36;;;;;;;8.98;6.43;;;;;;;22.53;62.41;96325.28;5043473;28;20060;-28
2023/06/09 04:36:03;;;;;;;9.80;6.63;;;;;;;22.61;62.43;96317.25;5041058;28;20368;-30
2023/06/09 04:38:32;;;;;;;9.10;6.65;;;;;;;22.60;62.51;96313.72;5034768;28;20057;-28
2023/06/09 04:41:01;;;;;;;9.75;7.32;;;;;;;22.62;61.84;96318.75;5033191;28;20441;-28
2023/06/09 04:43:28;;;;;;;9.70;5.95;;;;;;;22.81;61.36;96316.91;5042140;28;20500;-28
2023/06/09 04:45:55;;;;;;;10.30;6.40;;;;;;;22.74;61.64;96314.66;5049289;28;20024;-28
2023/06/09 04:48:21;;;;;;;8.90;6.47;;;;;;;22.67;61.69;96317.94;5034303;28;20590;-28
2023/06/09 04:50:47;;;;;;;10.25;6.13;;;;;;;22.71;61.49;96321.22;5034898;28;20397;-29
2023/06/09 04:53:15;;;;;;;9.52;6.25;;;;;;;22.60;62.55;96322.00;5042238;28;20021;-29
2023/06/09 04:55:41;;;;;;;8.27;6.18;;;;;;;22.62;61.82;96316.72;5041564;28;20055;-28
2023/06/09 04:58:07;;;;;;;9.20;5.95;;;;;;;22.50;62.56;96327.06;5044132;28;20029;-28
2023/06/09 05:00:33;;;;;;;7.65;5.75;;;;;;;22.67;62.11;96317.94;5039517;28;20108;-28
2023/06/09 05:03:02;;;;;;;7.88;5.28;;;;;;;22.68;62.33;96319.47;5034743;28;20400;-29
2023/06/09 05:05:28;;;;;;;8.95;5.85;;;;;;;22.69;61.83;96323.72;5033221;28;20374;-29
2023/06/09 05:07:54;;;;;;;10.55;5.63;;;;;;;22.76;62.06;96321.19;5034229;28;20116;-30
2023/06/09 05:10:22;;;;;;;8.10;5.82;;;;;;;22.85;61.62;96314.63;5037224;28;20388;-28
2023/06/09 05:12:48;;;;;;;8.27;5.72;;;;;;;22.72;61.81;96311.66;5046294;28;20017;-30
2023/06/09 05:15:14;;;;;;;9.30;5.68;;;;;;;22.83;61.61;96312.38;5034489;28;20032;-30
2023/06/09 05:17:42;;;;;;;9.00;5.63;;;;;;;22.48;62.89;96312.25;5034481;28;20107;-28
2023/06/09 05:20:09;;;;;;;11.60;5.50;;;;;;;22.68;62.40;96311.16;5034112;28;20091;-28
2023/06/09 05:22:36;;;;;;;8.63;4.90;;;;;;;22.69;61.79;96313.41;5034933;28;20026;-29
2023/06/09 05:25:06;;;;;;;6.90;4.82;;;;;;;22.52;62.16;96316.25;5039919;28;20104;-28
2023/06/09 05:27:31;;;;;;;6.57;4.18;;;;;;;22.78;61.64;96313.16;5035940;28;20069;-29
2023/06/09 05:29:57;;;;;;;7.68;5.10;;;;;;;22.88;61.33;96313.59;5047228;28;20108;-28
2023/06/09 05:32:22;;;;;;;7.15;4.70;;;;;;;22.85;61.10;96306.34;5034002;28;20071;-29
2023/06/09 05:34:48;;;;;;;10.15;5.00;;;;;;;22.67;62.03;96309.66;5040346;28;20025;-28
2023/06/09 05:37:16;;;;;;;9.43;4.95;;;;;;;22.84;61.40;96310.38;5034229;28;20022;-29
2023/06/09 05:39:42;;;;;;;7.38;5.13;;;;;;;22.85;61.27;96312.63;5041734;28;20495;-29
2023/06/09 05:42:08;;;;;;;7.13;4.88;;;;;;;22.79;61.81;96311.88;5041039;28;20104;-28
2023/06/09 05:44:34;;;;;;;6.88;5.22;;;;;;;22.65;62.30;96309.41;5032575;28;20427;-28
2023/06/09 05:46:59;;;;;;;9.45;6.13;;;;;;;22.98;61.52;96306.53;5033816;28;20026;-30
2023/06/09 05:49:25;;;;;;;11.23;5.35;;;;;;;22.81;61.77;96309.38;5033823;28;20030;-29
2023/06/09 05:51:50;;;;;;;8.40;5.65;;;;;;;22.78;62.18;96313.16;5041966;28;20067;-29
2023/06/09 05:54:17;;;;;;;8.85;5.63;;;;;;;22.78;62.05;96312.41;5044488;28;20024;-28
2023/06/09 05:56:44;;;;;;;6.47;5.25;;;;;;;22.87;61.59;96312.13;5034638;28;20489;-28
2023/06/09 05:59:10;;;;;;;10.73;5.57;;;;;;;22.84;61.90;96311.13;5038412;28;20055;-28
2023/06/09 06:01:35;;;;;;;7.93;5.57;;;;;;;22.74;62.12;96311.91;5033710;28;20465;-28
2023/06/09 06:04:01;;;;;;;9.07;5.72;;;;;;;22.81;61.64;96319.69;5034195;28;20021;-28
2023/06/09 06:06:26;;;;;;;8.13;5.13;;;;;;;22.86;61.53;96324.44;5039080;28;20025;-28
2023/06/09 06:08:52;;;;;;;6.88;5.10;;;;;;;22.82;61.60;96313.66;5040847;28;20018;-28
2023/06/09 06:11:17;;;;;;;8.63;5.55;;;;;;;22.68;62.11;96322.22;5040842;28;20033;-29
2023/06/09 06:13:43;;;;;;;8.30;4.93;;;;;;;22.78;61.86;96317.94;5033659;28;20096;-29
2023/06/09 06:16:08;;;;;;;6.05;4.80;;;;;;;22.71;62.20;96323.97;5033966;28;20017;-29
2023/06/09 06:18:34;;;;;;;6.60;4.80;;;;;;;22.93;61.34;96318.34;5040720;28;20056;-29
2023/06/09 06:20:59;;;;;;;10.18;5.25;;;;;;;22.85;61.93;96317.41;5039945;28;20047;-28
2023/06/09 06:23:25;;;;;;;5.60;4.78;;;;;;;22.80;62.05;96326.47;5034540;28;20017;-28
2023/06/09 06:25:50;;;;;;;8.52;5.18;;;;;;;22.85;62.15;96331.97;5033689;28;20408;-29
2023/06/09 06:28:16;;;;;;;7.82;5.57;;;;;;;22.94;61.65;96333.69;5033299;28;20079;-28
2023/06/09 06:30:42;;;;;;;9.45;5.28;;;;;;;22.56;62.98;96335.34;5025495;28;20035;-28
2023/06/09 06:33:08;;;;;;;6.43;4.70;;;;;;;22.82;62.30;96337.78;5033648;28;20033;-28
2023/06/09 06:35:34;;;;;;;8.02;4.78;;;;;;;22.92;61.86;96333.44;5032369;28;20025;-29
2023/06/09 06:38:00;;;;;;;7.40;4.95;;;;;;;22.78;61.93;96328.97;5033466;28;20032;-29
2023/06/09 06:40:26;;;;;;;5.75;4.00;;;;;;;22.98;61.32;96342.47;5032951;28;20096;-28
2023/06/09 06:42:52;;;;;;;7.72;4.45;;;;;;;22.83;61.91;96337.25;5033847;28;20033;-28
2023/06/09 06:45:18;;;;;;;6.68;4.35;;;;;;;23.04;61.17;96340.41;5029265;28;20075;-29
2023/06/09 06:47:45;;;;;;;7.60;4.32;;;;;;;23.00;60.88;96328.13;5044586;28;20411;-28
2023/06/09 06:50:14;;;;;;;7.95;4.00;;;;;;;23.12;60.23;96324.03;5040811;28;20095;-28
2023/06/09 06:52:40;;;;;;;8.27;4.78;;;;;;;23.00;61.09;96328.13;5047069;28;20474;-28
2023/06/09 06:55:08;;;;;;;6.90;4.72;;;;;;;23.04;61.55;96339.66;5037225;28;20048;-29
2023/06/09 06:57:35;;;;;;;7.38;5.05;;;;;;;23.09;60.96;96349.97;5037161;28;20026;-29
2023/06/09 07:00:07;;;;;;;8.80;4.90;;;;;;;22.90;61.97;96347.03;5038129;28;20025;-28
2023/06/09 07:02:33;;;;;;;6.03;3.90;;;;;;;23.18;60.91;96342.09;5042320;28;20025;-28
2023/06/09 07:04:59;;;;;;;5.13;3.97;;;;;;;23.02;61.06;96342.94;5044458;28;20416;-29
2023/06/09 07:07:26;;;;;;;7.63;4.75;;;;;;;23.07;60.85;96336.63;5036811;28;20349;-29
2023/06/09 07:09:51;;;;;;;7.18;4.05;;;;;;;23.18;60.60;96327.50;5036954;28;20021;-29
2023/06/09 07:12:17;;;;;;;5.47;4.13;;;;;;;23.16;60.18;96336.31;5044104;28;20427;-28
2023/06/09 07:14:42;;;;;;;7.65;3.45;;;;;;;23.07;59.99;96338.66;5043888;28;20469;-29
2023/06/09 07:17:07;;;;;;;5.57;3.67;;;;;;;23.20;59.35;96336.81;5050608;28;20103;-29
2023/06/09 07:19:35;;;;;;;6.28;4.00;;;;;;;22.78;61.22;96338.03;5036866;28;20097;-28
2023/06/09 07:22:01;;;;;;;5.65;3.33;;;;;;;23.14;59.89;96330.53;5036201;28;20025;-29
2023/06/09 07:24:26;;;;;;;3.67;3.28;;;;;;;23.36;59.38;96334.44;5036907;28;20392;-30
2023/06/09 07:26:53;;;;;;;5.00;4.05;;;;;;;23.10;60.20;96341.16;5040983;28;20021;-28
2023/06/09 07:29:18;;;;;;;4.85;3.75;;;;;;;23.06;60.72;96343.44;5038881;28;20029;-28
2023/06/09 07:31:44;;;;;;;7.53;3.78;;;;;;;23.21;60.06;96329.25;5043745;28;20353;-30
2023/06/09 07:34:11;;;;;;;8.20;3.90;;;;;;;23.32;59.76;96331.19;5041690;28;20069;-29
2023/06/09 07:36:37;;;;;;;5.50;4.10;;;;;;;23.16;60.73;96335.56;5037789;28;20030;-28
2023/06/09 07:39:07;;;;;;;8.50;4.03;;;;;;;22.78;61.65;96334.50;5036212;28;20071;-28
2023/06/09 07:41:33;;;;;;;6.47;4.00;;;;;;;23.39;60.22;96334.16;5043337;28;20021;-29
2023/06/09 07:43:59;;;;;;;6.90;4.05;;;;;;;23.09;60.70;96325.81;5043392;28;20431;-28
2023/06/09 07:46:25;;;;;;;7.35;4.60;;;;;;;23.35;59.79;96330.94;5035870;28;20029;-29
2023/06/09 07:48:51;;;;;;;7.22;4.85;;;;;;;23.22;59.60;96339.81;5036336;28;20037;-29
2023/06/09 07:51:16;;;;;;;6.10;4.57;;;;;;;23.21;59.95;96343.09;5035962;28;20104;-28
2023/06/09 07:53:42;;;;;;;7.55;4.93;;;;;;;23.19;60.05;96343.59;5045047;28;20346;-28
2023/06/09 07:56:08;;;;;;;7.15;5.28;;;;;;;22.86;61.91;96354.84;5038632;28;20141;-28
2023/06/09 07:58:34;;;;;;;7.78;5.20;;;;;;;22.88;62.09;96346.78;5039611;28;20489;-28
2023/06/09 08:00:59;;;;;;;10.00;5.15;;;;;;;23.15;61.51;96340.34;5036096;28;20155;-29
2023/06/09 08:03:25;;;;;;;6.85;4.72;;;;;;;23.36;60.79;96351.06;5035616;28;20100;-28
2023/06/09 08:05:51;;;;;;;7.82;5.07;;;;;;;23.35;60.67;96336.47;5035619;28;20013;-28
2023/06/09 08:08:16;;;;;;;6.15;4.90;;;;;;;23.36;60.50;96337.22;5040138;28;20518;-30
2023/06/09 08:10:42;;;;;;;5.63;4.57;;;;;;;23.33;60.63;96338.25;5042329;28;20037;-29
2023/06/09 08:13:08;;;;;;;7.32;4.75;;;;;;;23.52;59.70;96333.59;5035791;28;20108;-28
2023/06/09 08:15:33;;;;;;;6.25;4.60;;;;;;;23.62;59.68;96334.75;5038864;28;20017;-29
2023/06/09 08:17:59;;;;;;;6.38;4.65;;;;;;;23.50;60.43;96341.63;5039460;28;20092;-30
2023/06/09 08:20:24;;;;;;;5.95;4.70;;;;;;;23.56;60.02;96339.59;5035897;28;20025;-28
2023/06/09 08:22:50;;;;;;;7.57;5.07;;;;;;;23.50;60.52;96347.16;5040268;28;20103;-29
2023/06/09 08:25:16;;;;;;;8.10;4.78;;;;;;;23.60;59.71;96345.63;5037845;28;20075;-29
2023/06/09 08:27:41;;;;;;;8.52;5.07;;;;;;;23.69;59.83;96355.63;5035490;28;20022;-29
2023/06/09 08:30:08;;;;;;;7.05;4.90;;;;;;;23.73;59.60;96356.84;5035272;28;20026;-28
2023/06/09 08:32:33;;;;;;;5.57;4.97;;;;;;;23.46;60.44;96352.25;5035272;28;20112;-29
2023/06/09 08:35:03;;;;;;;8.07;5.10;;;;;;;23.62;59.87;96365.97;5042216;28;20121;-30
2023/06/09 08:37:29;;;;;;;8.48;5.60;;;;;;;23.60;59.96;96368.53;5042306;28;20060;-29
2023/06/09 08:39:57;;;;;;;6.68;4.82;;;;;;;23.66;59.38;96359.41;5026411;28;20373;-29
2023/06/09 08:42:25;;;;;;;7.68;4.75;;;;;;;23.77;59.30;96368.38;5035227;28;20052;-29
2023/06/09 08:44:59;;;;;;;7.65;5.03;;;;;;;23.75;59.32;96370.16;5035016;28;20433;-28
2023/06/09 08:47:26;;;;;;;7.68;4.72;;;;;;;23.87;58.95;96372.31;5034992;28;20103;-28
2023/06/09 08:49:57;;;;;;;9.98;5.05;;;;;;;23.82;58.92;96373.13;5040969;28;20025;-28
2023/06/09 08:52:23;;;;;;;5.30;3.80;;;;;;;23.75;58.82;96364.63;5040071;28;20100;-28
2023/06/09 08:54:50;;;;;;;11.30;4.13;;;;;;;23.61;58.99;96372.06;5036649;28;20029;-28
2023/06/09 08:57:16;;;;;;;7.32;4.20;;;;;;;23.71;58.24;96376.00;5033471;28;20021;-29
2023/06/09 08:59:44;;;;;;;7.22;3.30;;;;;;;23.69;58.68;96378.53;5034795;28;20021;-28
2023/06/09 09:02:11;;;;;;;5.47;3.40;;;;;;;23.77;58.12;96385.00;5043906;28;20029;-28
2023/06/09 09:04:40;;;;;;;7.47;3.53;;;;;;;23.76;57.93;96391.03;5039593;28;20017;-29
2023/06/09 09:07:11;;;;;;;5.28;3.45;;;;;;;23.83;57.41;96380.19;5041916;28;20017;-29
2023/06/09 09:09:37;;;;;;;4.85;3.00;;;;;;;23.80;57.44;96375.66;5033481;28;20053;-28
2023/06/09 09:12:03;;;;;;;6.43;3.30;;;;;;;23.73;57.63;96387.31;5041847;28;20078;-28
2023/06/09 09:14:28;;;;;;;7.60;3.00;;;;;;;23.66;57.70;96381.56;5033227;28;20423;-28
2023/06/09 09:16:54;;;;;;;6.03;3.20;;;;;;;23.85;56.72;96382.44;5034816;28;20025;-28
2023/06/09 09:19:27;;;;;;;7.93;3.03;;;;;;;23.74;57.01;96374.94;5041608;28;20058;-29
2023/06/09 09:21:56;;;;;;;7.85;3.13;;;;;;;23.81;56.65;96377.16;5034392;28;20043;-28
2023/06/09 09:24:29;;;;;;;6.30;2.97;;;;;;;23.81;56.72;96370.88;5034740;28;20108;-29
2023/06/09 09:26:56;;;;;;;6.22;3.03;;;;;;;23.82;56.77;96367.59;5034134;28;20024;-29
2023/06/09 09:29:26;;;;;;;5.80;3.60;;;;;;;24.03;56.36;96372.69;5041451;28;20028;-28
2023/06/09 09:31:55;;;;;;;9.75;3.10;;;;;;;23.72;56.99;96366.44;5037567;28;20023;-29
2023/06/09 09:34:21;;;;;;;11.30;3.65;;;;;;;23.84;56.76;96370.59;5037117;28;20104;-31
2023/06/09 09:36:52;;;;;;;5.22;2.75;;;;;;;23.62;56.91;96368.75;5034568;28;20443;-28
2023/06/09 09:39:18;;;;;;;6.55;2.53;;;;;;;23.64;56.18;96351.63;5034404;28;20028;-29
2023/06/09 09:42:10;;;;;;;5.13;2.55;;;;;;;23.62;56.18;96348.59;5035147;28;20389;-29
2023/06/09 09:44:40;;;;;;;6.32;2.88;;;;;;;23.79;55.96;96346.47;5036635;28;20039;-29
2023/06/09 09:47:12;;;;;;;8.15;2.47;;;;;;;23.81;55.91;96352.25;5027233;28;20035;-28
2023/06/09 09:49:53;;;;;;;7.37;2.73;;;;;;;23.92;55.64;96351.41;5033791;28;20389;-29
2023/06/09 09:52:26;;;;;;;19.02;2.92;;;;;;;23.81;56.27;96351.50;5033191;28;20098;-29
2023/06/09 09:54:53;;;;;;;36.20;5.18;;;;;;;23.80;56.56;96347.97;5034796;28;20104;-29
2023/06/09 09:57:20;;;;;;;36.53;5.72;;;;;;;23.75;56.76;96350.78;5033968;28;20025;-29
2023/06/09 09:59:47;;;;;;;23.58;3.70;;;;;;;23.80;56.50;96355.53;5040231;28;20013;-28
2023/06/09 10:02:18;;;;;;;19.75;3.25;;;;;;;23.82;56.34;96339.91;5034163;28;20025;-29
2023/06/09 10:04:45;;;;;;;38.45;4.78;;;;;;;23.73;56.42;96343.00;5033727;28;20028;-29
2023/06/09 10:07:11;;;;;;;15.52;3.05;;;;;;;23.84;56.04;96353.25;5033652;28;20115;-28
2023/06/09 10:09:37;;;;;;;17.77;4.18;;;;;;;23.82;55.90;96345.44;5033355;28;20064;-28
2023/06/09 10:12:03;;;;;;;11.35;2.88;;;;;;;23.75;55.81;96346.00;5048278;28;20021;-28
2023/06/09 10:14:29;;;;;;;10.38;2.60;;;;;;;23.85;55.65;96349.97;5033810;28;20036;-28
2023/06/09 10:16:57;;;;;;;11.27;2.53;;;;;;;23.85;55.45;96358.25;5040387;28;20036;-29
2023/06/09 10:19:24;;;;;;;8.80;2.45;;;;;;;23.94;54.93;96355.16;5033856;28;20049;-29
2023/06/09 10:21:52;;;;;;;5.25;3.00;;;;;;;23.80;55.00;96347.97;5037154;28;20030;-28
2023/06/09 10:24:21;;;;;;;4.43;2.63;;;;;;;23.97;54.54;96345.06;5037661;28;20035;-29
2023/06/09 10:26:49;;;;;;;5.95;2.58;;;;;;;24.04;54.36;96343.72;5044600;28;20014;-28
2023/06/09 10:29:15;;;;;;;4.10;2.83;;;;;;;23.88;55.46;96340.59;5037223;28;20049;-30
2023/06/09 10:31:45;;;;;;;6.40;2.75;;;;;;;24.04;54.90;96340.97;5037652;28;20419;-28
2023/06/09 10:34:13;;;;;;;6.63;3.30;;;;;;;24.02;55.38;96333.16;5042598;28;20033;-29
2023/06/09 10:36:40;;;;;;;5.53;2.92;;;;;;;23.97;55.46;96334.00;5037920;28;20040;-29
2023/06/09 10:39:19;;;;;;;5.65;3.28;;;;;;;23.88;55.27;96337.81;5044662;28;20113;-28
2023/06/09 10:42:08;;;;;;;6.80;4.05;;;;;;;24.00;55.18;96346.78;5044426;28;20067;-30
2023/06/09 10:44:51;;;;;;;5.75;3.67;;;;;;;24.07;55.19;96340.69;5036962;28;20764;-29
2023/06/09 10:47:36;;;;;;;;;;;;;;;23.99;55.48;96340.47;5032418;28;20034;-28
2023/06/09 10:50:02;;;;;;;6.05;3.45;;;;;;;23.98;55.25;96343.81;5042164;28;19927;-29
2023/06/09 10:52:41;;;;;;;3.80;3.03;;;;;;;24.04;54.79;96335.41;5050352;28;20021;-28
2023/06/09 10:55:15;;;;;;;7.10;2.97;;;;;;;24.01;54.51;96331.66;5050838;28;20140;-29
2023/06/09 10:57:41;;;;;;;8.65;3.28;;;;;;;23.90;54.75;96331.78;5037350;28;20029;-28
2023/06/09 11:00:15;;;;;;;7.53;3.10;;;;;;;24.06;54.67;96330.88;5036882;28;20025;-28
2023/06/09 11:03:06;;;;;;;5.75;3.40;;;;;;;24.15;54.29;96330.53;5036040;28;20071;-28
2023/06/09 11:05:41;;;;;;;5.40;3.00;;;;;;;24.14;54.55;96328.25;5038098;28;20427;-31
2023/06/09 11:08:08;;;;;;;4.47;3.00;;;;;;;24.05;54.81;96329.38;5044292;28;20017;-28
2023/06/09 11:10:36;;;;;;;7.05;3.42;;;;;;;24.05;54.27;96325.84;5041166;28;20024;-28
2023/06/09 11:13:04;;;;;;;7.20;3.55;;;;;;;24.11;54.07;96318.25;5039070;28;20022;-28
2023/06/09 11:15:57;;;;;;;6.22;3.20;;;;;;;24.05;54.31;96317.53;5039412;28;20354;-29
2023/06/09 11:18:24;;;;;;;7.50;3.95;;;;;;;24.09;53.94;96320.78;5043197;28;20063;-28
2023/06/09 11:21:08;;;;;;;6.72;3.70;;;;;;;24.12;54.18;96308.63;5041737;28;20551;-28
2023/06/09 11:24:03;;;;;;;7.85;4.05;;;;;;;24.14;54.73;96309.63;5036833;28;20549;-28
2023/06/09 11:26:30;;;;;;;6.72;4.50;;;;;;;24.07;54.94;96312.97;5035254;28;20420;-28
2023/06/09 11:28:57;;;;;;;7.93;4.13;;;;;;;24.14;55.04;96314.41;5036186;28;20486;-29
2023/06/09 11:31:23;;;;;;;6.78;4.10;;;;;;;24.19;55.17;96310.84;5036184;28;20037;-28
2023/06/09 11:33:51;;;;;;;6.80;3.72;;;;;;;24.19;55.19;96316.38;5028142;28;20053;-28